createdAt,value
2023-01-06T00:02:31.684Z,12.47
2023-01-06T00:05:57.475Z,16.67
2023-01-06T00:09:22.468Z,9.20
2023-01-06T00:12:48.308Z,9.20
2023-01-06T00:16:15.363Z,15.90
2023-01-06T00:19:40.510Z,16.13
2023-01-06T00:23:05.621Z,12.07
2023-01-06T00:26:30.648Z,16.27
2023-01-06T00:29:55.816Z,21.10
2023-01-06T00:33:20.786Z,21.27
2023-01-06T00:36:45.816Z,23.53
2023-01-06T00:40:11.490Z,18.53
2023-01-06T00:43:36.492Z,19.07
2023-01-06T00:47:02.199Z,18.97
2023-01-06T00:50:27.343Z,18.87
2023-01-06T00:53:52.636Z,17.23
2023-01-06T00:57:17.987Z,17.93
2023-01-06T01:00:43.015Z,28.90
2023-01-06T01:04:08.165Z,18.20
2023-01-06T01:07:33.148Z,18.33
2023-01-06T01:11:05.673Z,19.83
2023-01-06T01:14:30.666Z,19.80
2023-01-06T01:17:58.960Z,17.87
2023-01-06T01:21:24.356Z,23.43
2023-01-06T01:24:49.391Z,22.60
2023-01-06T01:28:14.903Z,24.60
2023-01-06T01:31:40.427Z,21.10
2023-01-06T01:35:05.756Z,18.80
2023-01-06T01:38:30.768Z,20.83
2023-01-06T01:41:56.412Z,23.20
2023-01-06T01:45:41.781Z,21.17
2023-01-06T01:49:25.099Z,15.80
2023-01-06T01:52:53.602Z,17.63
2023-01-06T01:56:21.864Z,17.53
2023-01-06T02:00:08.073Z,18.13
2023-01-06T02:03:33.390Z,17.67
2023-01-06T02:07:00.953Z,17.33
2023-01-06T02:10:30.400Z,18.03
2023-01-06T02:14:02.427Z,16.60
2023-01-06T02:17:51.151Z,18.50
2023-01-06T02:21:57.787Z,21.60
2023-01-06T02:25:52.003Z,16.30
2023-01-06T02:29:41.961Z,17.63
2023-01-06T02:33:28.848Z,18.97
2023-01-06T02:37:11.794Z,20.47
2023-01-06T02:40:59.422Z,15.87
2023-01-06T02:44:27.176Z,18.77
2023-01-06T02:48:00.688Z,15.07
2023-01-06T02:51:37.759Z,14.73
2023-01-06T02:55:09.308Z,15.20
2023-01-06T02:58:54.520Z,15.47
2023-01-06T03:02:23.042Z,16.03
2023-01-06T03:05:52.024Z,14.43
2023-01-06T03:09:23.102Z,20.33
2023-01-06T03:13:08.532Z,19.63
2023-01-06T03:16:34.087Z,17.93
2023-01-06T03:19:59.281Z,19.37
2023-01-06T03:23:24.751Z,18.13
2023-01-06T03:26:52.457Z,16.73
2023-01-06T03:30:17.678Z,21.23
2023-01-06T03:33:56.568Z,21.80
2023-01-06T03:37:48.041Z,19.00
2023-01-06T03:42:06.247Z,19.70
2023-01-06T03:45:36.822Z,25.03
2023-01-06T03:49:12.224Z,27.00
2023-01-06T03:52:55.454Z,27.77
2023-01-06T03:56:29.682Z,27.60
2023-01-06T04:00:02.035Z,24.87
2023-01-06T04:03:27.419Z,28.97
2023-01-06T04:06:52.448Z,29.70
2023-01-06T04:10:18.773Z,30.87
2023-01-06T04:13:27.383Z,34.10
2023-01-06T04:16:38.256Z,27.47
2023-01-06T04:20:04.088Z,27.47
2023-01-06T04:23:32.973Z,38.33
2023-01-06T04:26:43.284Z,26.37
2023-01-06T04:30:08.656Z,28.83
2023-01-06T04:33:33.705Z,27.23
2023-01-06T04:36:58.715Z,31.07
2023-01-06T04:40:23.889Z,31.60
2023-01-06T04:43:38.848Z,28.73
2023-01-06T04:46:39.397Z,33.10
2023-01-06T04:49:49.133Z,30.17
2023-01-06T04:53:13.820Z,30.27
2023-01-06T04:56:09.539Z,32.33
2023-01-06T04:59:13.688Z,34.47
2023-01-06T05:02:06.684Z,28.93
2023-01-06T05:04:49.478Z,33.57
2023-01-06T05:07:27.026Z,40.43
2023-01-06T05:10:01.082Z,33.03
2023-01-06T05:12:31.409Z,40.03
2023-01-06T05:15:11.058Z,34.23
2023-01-06T05:17:48.671Z,31.60
2023-01-06T05:20:28.369Z,35.53
2023-01-06T05:23:13.645Z,38.63
2023-01-06T05:26:05.942Z,39.57
2023-01-06T05:28:45.521Z,43.67
2023-01-06T05:31:33.436Z,36.73
2023-01-06T05:34:05.002Z,42.00
2023-01-06T05:36:48.005Z,44.40
2023-01-06T05:39:31.597Z,37.37
2023-01-06T05:42:06.338Z,36.30
2023-01-06T05:44:36.882Z,32.07
2023-01-06T05:47:05.671Z,38.30
2023-01-06T05:49:32.220Z,32.43
2023-01-06T05:52:00.344Z,36.43
2023-01-06T05:54:38.209Z,33.63
2023-01-06T05:57:18.184Z,37.60
2023-01-06T06:00:06.430Z,36.03
2023-01-06T06:02:52.236Z,41.53
2023-01-06T06:05:35.119Z,30.63
2023-01-06T06:08:29.259Z,30.00
2023-01-06T06:11:33.286Z,30.40
2023-01-06T06:14:23.175Z,29.17
2023-01-06T06:17:07.819Z,25.30
2023-01-06T06:19:58.798Z,30.20
2023-01-06T06:22:50.522Z,26.27
2023-01-06T06:25:32.291Z,26.83
2023-01-06T06:28:05.317Z,29.13
2023-01-06T06:30:40.683Z,28.97
2023-01-06T06:33:17.309Z,31.83
2023-01-06T06:35:57.314Z,26.73
2023-01-06T06:38:30.980Z,32.37
2023-01-06T06:41:02.587Z,31.40
2023-01-06T06:43:35.788Z,29.73
2023-01-06T06:46:11.339Z,32.27
2023-01-06T06:48:43.258Z,29.90
2023-01-06T06:51:17.147Z,28.30
2023-01-06T06:53:45.645Z,32.07
2023-01-06T06:56:13.910Z,25.70
2023-01-06T06:58:40.651Z,25.33
2023-01-06T07:01:14.470Z,29.33
2023-01-06T07:03:41.589Z,30.90
2023-01-06T07:06:11.597Z,32.47
2023-01-06T07:08:38.608Z,28.70
2023-01-06T07:11:05.505Z,24.93
2023-01-06T07:14:30.516Z,33.77
2023-01-06T07:18:02.333Z,27.53
2023-01-06T07:21:02.516Z,25.83
2023-01-06T07:23:44.174Z,26.63
2023-01-06T07:26:28.761Z,29.07
2023-01-06T07:29:06.071Z,25.77
2023-01-06T07:31:32.604Z,22.47
2023-01-06T07:34:47.801Z,25.90
2023-01-06T07:37:14.263Z,22.47
2023-01-06T07:39:40.719Z,26.80
2023-01-06T07:42:10.736Z,24.40
2023-01-06T07:44:37.408Z,23.27
2023-01-06T07:47:04.220Z,22.23
2023-01-06T07:49:30.799Z,27.23
2023-01-06T07:51:57.329Z,25.60
2023-01-06T07:54:23.971Z,24.40
2023-01-06T07:56:52.460Z,25.33
2023-01-06T08:00:14.398Z,24.97
2023-01-06T08:03:39.490Z,24.87
2023-01-06T08:06:41.465Z,29.43
2023-01-06T08:09:08.811Z,24.57
2023-01-06T08:11:35.332Z,24.83
2023-01-06T08:14:01.897Z,27.90
2023-01-06T08:16:28.499Z,27.77
2023-01-06T08:18:55.048Z,24.53
2023-01-06T08:21:21.563Z,21.10
2023-01-06T08:23:48.065Z,23.83
2023-01-06T08:26:17.756Z,21.97
2023-01-06T08:28:45.892Z,23.13
2023-01-06T08:31:15.414Z,20.27
2023-01-06T08:33:42.804Z,21.87
2023-01-06T08:36:12.856Z,15.67
2023-01-06T08:38:40.283Z,29.57
2023-01-06T08:41:07.570Z,21.93
2023-01-06T08:43:34.359Z,17.70
2023-01-06T08:46:04.256Z,12.40
2023-01-06T08:48:31.430Z,15.10
2023-01-06T08:51:11.487Z,14.30
2023-01-06T08:53:38.401Z,13.87
2023-01-06T08:56:16.152Z,15.67
2023-01-06T08:59:05.071Z,17.30
2023-01-06T09:01:37.655Z,17.70
2023-01-06T09:04:06.476Z,18.17
2023-01-06T09:06:33.351Z,11.70
2023-01-06T09:09:00.604Z,17.23
2023-01-06T09:11:27.469Z,14.10
2023-01-06T09:13:54.309Z,14.87
2023-01-06T09:16:21.928Z,19.07
2023-01-06T09:18:49.809Z,12.77
2023-01-06T09:21:18.345Z,11.80
2023-01-06T09:23:44.890Z,15.03
2023-01-06T09:26:12.193Z,12.67
2023-01-06T09:28:38.794Z,13.37
2023-01-06T09:31:06.149Z,15.63
2023-01-06T09:33:35.703Z,13.73
2023-01-06T09:36:03.121Z,11.73
2023-01-06T09:38:29.712Z,8.50
2023-01-06T09:41:17.658Z,8.73
2023-01-06T09:44:02.088Z,11.63
2023-01-06T09:46:34.121Z,6.63
2023-01-06T09:49:14.630Z,11.17
2023-01-06T09:51:41.951Z,9.83
2023-01-06T09:54:31.655Z,7.40
2023-01-06T09:57:06.032Z,9.53
2023-01-06T09:59:45.941Z,11.57
2023-01-06T10:02:21.361Z,9.23
2023-01-06T10:04:47.990Z,7.00
2023-01-06T10:07:45.293Z,9.60
2023-01-06T10:10:26.508Z,6.77
2023-01-06T10:13:00.565Z,4.80
2023-01-06T10:16:01.095Z,9.17
2023-01-06T10:18:59.251Z,5.00
2023-01-06T10:22:24.898Z,6.60
2023-01-06T10:25:39.090Z,5.37
2023-01-06T10:28:19.514Z,6.90
2023-01-06T10:30:50.450Z,6.83
2023-01-06T10:35:55.758Z,6.57
2023-01-06T10:38:27.148Z,7.80
2023-01-06T10:41:01.767Z,7.43
2023-01-06T10:43:29.206Z,5.50
2023-01-06T10:45:55.813Z,7.30
2023-01-06T10:48:29.785Z,7.80
2023-01-06T10:50:58.033Z,7.03
2023-01-06T10:53:24.792Z,6.00
2023-01-06T10:55:58.897Z,10.00
2023-01-06T10:58:37.320Z,6.57
2023-01-06T11:01:09.635Z,10.40
2023-01-06T11:03:37.147Z,12.17
2023-01-06T11:06:17.098Z,12.07
2023-01-06T11:08:44.845Z,7.87
2023-01-06T11:11:27.145Z,12.57
2023-01-06T11:14:01.182Z,11.97
2023-01-06T11:16:33.841Z,14.57
2023-01-06T11:19:04.127Z,6.87
2023-01-06T11:21:46.749Z,6.20
2023-01-06T11:24:18.887Z,6.07
2023-01-06T11:26:53.376Z,6.00
2023-01-06T11:29:40.217Z,6.80
2023-01-06T11:32:21.413Z,5.93
2023-01-06T11:35:05.668Z,7.73
2023-01-06T11:37:43.370Z,7.03
2023-01-06T11:40:29.962Z,6.57
2023-01-06T11:43:01.567Z,3.50
2023-01-06T11:45:39.928Z,4.53
2023-01-06T11:48:17.642Z,2.33
2023-01-06T11:50:52.071Z,2.60
2023-01-06T11:53:19.168Z,2.17
2023-01-06T11:56:02.630Z,2.13
2023-01-06T11:58:38.198Z,2.90
2023-01-06T12:01:12.234Z,5.43
2023-01-06T12:03:42.540Z,2.23
2023-01-06T12:06:35.980Z,3.67
2023-01-06T12:09:33.746Z,3.93
2023-01-06T12:12:10.033Z,3.00
2023-01-06T12:14:38.738Z,6.40
2023-01-06T12:17:33.368Z,6.50
2023-01-06T12:20:27.145Z,3.83
2023-01-06T12:23:11.557Z,5.33
2023-01-06T12:25:42.731Z,6.23
2023-01-06T12:28:28.876Z,3.87
2023-01-06T12:31:28.972Z,5.33
2023-01-06T12:34:34.855Z,5.03
2023-01-06T12:37:22.479Z,9.47
2023-01-06T12:40:08.961Z,6.83
2023-01-06T12:42:51.502Z,9.90
2023-01-06T12:45:32.861Z,9.13
2023-01-06T12:48:03.495Z,6.07
2023-01-06T12:50:41.700Z,7.67
2023-01-06T12:53:26.641Z,7.23
2023-01-06T12:56:29.845Z,6.57
2023-01-06T12:58:56.342Z,7.07
2023-01-06T13:01:45.557Z,7.20
2023-01-06T13:04:41.123Z,3.40
2023-01-06T13:07:16.838Z,4.60
2023-01-06T13:10:14.772Z,3.87
2023-01-06T13:12:57.064Z,9.43
2023-01-06T13:15:27.580Z,5.43
2023-01-06T13:18:18.888Z,8.27
2023-01-06T13:20:51.187Z,6.23
2023-01-06T13:23:55.567Z,4.67
2023-01-06T13:26:37.173Z,8.43
2023-01-06T13:29:18.915Z,7.07
2023-01-06T13:32:04.374Z,3.43
2023-01-06T13:34:36.965Z,8.23
2023-01-06T13:37:38.479Z,6.23
2023-01-06T13:40:13.046Z,14.83
2023-01-06T13:42:42.406Z,6.83
2023-01-06T13:45:16.433Z,6.73
2023-01-06T13:47:43.740Z,9.07
2023-01-06T13:50:14.057Z,6.37
2023-01-06T13:52:41.864Z,8.50
2023-01-06T13:55:24.235Z,7.30
2023-01-06T13:57:50.878Z,10.27
2023-01-06T14:00:28.848Z,9.80
2023-01-06T14:03:01.359Z,9.53
2023-01-06T14:05:31.263Z,4.73
2023-01-06T14:08:03.202Z,5.80
2023-01-06T14:10:43.893Z,7.70
2023-01-06T14:13:27.585Z,9.13
2023-01-06T14:15:55.634Z,6.13
2023-01-06T14:18:38.710Z,7.17
2023-01-06T14:21:14.364Z,8.93
2023-01-06T14:24:01.844Z,8.03
2023-01-06T14:26:58.484Z,9.13
2023-01-06T14:29:43.636Z,5.73
2023-01-06T14:32:31.417Z,6.27
2023-01-06T14:35:20.260Z,9.73
2023-01-06T14:37:59.386Z,4.53
2023-01-06T14:40:29.460Z,6.57
2023-01-06T14:42:59.290Z,7.37
2023-01-06T14:45:29.469Z,9.70
2023-01-06T14:48:06.513Z,10.03
2023-01-06T14:50:46.894Z,5.67
2023-01-06T14:53:30.100Z,12.80
2023-01-06T14:55:58.851Z,7.03
2023-01-06T14:58:29.575Z,5.07
2023-01-06T15:00:56.794Z,6.70
2023-01-06T15:03:25.283Z,10.17
2023-01-06T15:06:09.681Z,5.77
2023-01-06T15:08:36.465Z,5.97
2023-01-06T15:11:33.757Z,7.33
2023-01-06T15:14:00.228Z,15.63
2023-01-06T15:16:38.194Z,6.10
2023-01-06T15:19:12.003Z,5.90
2023-01-06T15:21:40.471Z,9.53
2023-01-06T15:24:19.966Z,7.63
2023-01-06T15:26:46.683Z,6.50
2023-01-06T15:29:19.055Z,7.83
2023-01-06T15:31:47.183Z,9.47
2023-01-06T15:34:33.764Z,9.73
2023-01-06T15:37:02.389Z,8.27
2023-01-06T15:39:31.698Z,8.67
2023-01-06T15:41:59.582Z,10.37
2023-01-06T15:44:33.708Z,7.37
2023-01-06T15:47:15.811Z,13.63
2023-01-06T15:49:53.982Z,6.57
2023-01-06T15:52:30.123Z,6.23
2023-01-06T15:54:59.895Z,5.20
2023-01-06T15:57:30.035Z,5.73
2023-01-06T16:00:00.832Z,11.37
2023-01-06T16:02:31.345Z,7.17
2023-01-06T16:04:59.565Z,11.87
2023-01-06T16:07:40.110Z,6.20
2023-01-06T16:10:30.780Z,8.60
2023-01-06T16:13:29.196Z,6.83
2023-01-06T16:16:19.611Z,8.67
2023-01-06T16:18:46.804Z,8.93
2023-01-06T16:21:20.036Z,8.43
2023-01-06T16:23:53.500Z,10.40
2023-01-06T16:26:27.209Z,10.77
2023-01-06T16:29:00.096Z,8.93
2023-01-06T16:31:36.465Z,10.47
2023-01-06T16:34:21.404Z,11.37
2023-01-06T16:36:49.133Z,11.93
2023-01-06T16:39:15.726Z,8.23
2023-01-06T16:42:00.446Z,16.80
2023-01-06T16:44:29.614Z,10.80
2023-01-06T16:46:59.230Z,7.77
2023-01-06T16:49:29.052Z,12.23
2023-01-06T16:51:55.848Z,14.73
2023-01-06T16:54:23.547Z,11.20
2023-01-06T16:56:52.261Z,6.67
2023-01-06T16:59:20.520Z,8.07
2023-01-06T17:01:48.239Z,9.50
2023-01-06T17:04:15.591Z,13.63
2023-01-06T17:06:44.141Z,12.50
2023-01-06T17:09:22.164Z,6.53
2023-01-06T17:11:50.261Z,13.13
2023-01-06T17:14:19.282Z,5.77
2023-01-06T17:16:47.498Z,9.43
2023-01-06T17:19:30.283Z,10.87
2023-01-06T17:22:14.419Z,14.80
2023-01-06T17:24:41.075Z,8.17
2023-01-06T17:27:07.582Z,8.40
2023-01-06T17:29:37.783Z,17.13
2023-01-06T17:32:15.144Z,8.23
2023-01-06T17:34:41.640Z,6.40
2023-01-06T17:37:15.202Z,9.87
2023-01-06T17:39:44.651Z,9.77
2023-01-06T17:42:11.323Z,12.00
2023-01-06T17:44:41.313Z,8.73
2023-01-06T17:47:16.600Z,12.13
2023-01-06T17:49:52.597Z,10.70
2023-01-06T17:52:23.077Z,10.57
2023-01-06T17:55:15.429Z,10.30
2023-01-06T17:57:45.083Z,8.73
2023-01-06T18:00:20.666Z,10.97
2023-01-06T18:02:53.355Z,9.60
2023-01-06T18:05:25.964Z,15.60
2023-01-06T18:08:01.692Z,7.90
2023-01-06T18:10:28.305Z,9.07
2023-01-06T18:12:55.773Z,10.23
2023-01-06T18:15:32.989Z,13.10
2023-01-06T18:18:02.386Z,10.23
2023-01-06T18:20:29.593Z,11.70
2023-01-06T18:22:56.802Z,13.83
2023-01-06T18:25:25.102Z,10.03
2023-01-06T18:27:51.753Z,13.47
2023-01-06T18:30:28.138Z,15.17
2023-01-06T18:32:54.973Z,14.33
2023-01-06T18:35:28.901Z,8.33
2023-01-06T18:38:00.132Z,13.33
2023-01-06T18:40:26.816Z,10.50
2023-01-06T18:42:54.932Z,9.17
2023-01-06T18:45:24.485Z,9.10
2023-01-06T18:48:00.827Z,12.90
2023-01-06T18:50:38.245Z,13.03
2023-01-06T18:53:10.687Z,11.97
2023-01-06T18:55:41.052Z,14.33
2023-01-06T18:58:16.208Z,12.57
2023-01-06T19:00:48.273Z,11.07
2023-01-06T19:03:19.974Z,17.30
2023-01-06T19:05:47.436Z,13.03
2023-01-06T19:08:21.768Z,9.17
2023-01-06T19:10:49.872Z,11.20
2023-01-06T19:13:23.193Z,8.17
2023-01-06T19:15:49.707Z,9.03
2023-01-06T19:18:18.299Z,11.57
2023-01-06T19:20:46.047Z,8.40
2023-01-06T19:23:21.928Z,12.17
2023-01-06T19:25:53.352Z,28.13
2023-01-06T19:28:23.011Z,13.20
2023-01-06T19:31:00.872Z,15.70
2023-01-06T19:33:34.837Z,10.60
2023-01-06T19:36:26.320Z,11.63
2023-01-06T19:38:53.022Z,8.77
2023-01-06T19:41:29.544Z,13.77
2023-01-06T19:44:15.799Z,13.70
2023-01-06T19:46:47.775Z,7.50
2023-01-06T19:49:19.743Z,13.67
2023-01-06T19:51:48.860Z,9.13
2023-01-06T19:54:21.741Z,20.77
2023-01-06T19:56:49.388Z,13.90
2023-01-06T19:59:19.333Z,11.40
2023-01-06T20:01:46.957Z,10.27
2023-01-06T20:04:23.147Z,14.23
2023-01-06T20:06:50.406Z,13.30
2023-01-06T20:09:17.202Z,10.40
2023-01-06T20:11:43.932Z,8.60
2023-01-06T20:14:10.701Z,9.87
2023-01-06T20:16:37.381Z,13.73
2023-01-06T20:19:04.551Z,14.43
2023-01-06T20:21:31.083Z,18.23
2023-01-06T20:23:58.565Z,8.57
2023-01-06T20:26:26.025Z,12.33
2023-01-06T20:28:52.600Z,8.87
2023-01-06T20:31:19.162Z,16.40
2023-01-06T20:33:46.257Z,12.30
2023-01-06T20:36:17.161Z,17.07
2023-01-06T20:38:45.027Z,13.70
2023-01-06T20:41:11.957Z,13.27
2023-01-06T20:43:38.740Z,19.63
2023-01-06T20:46:05.537Z,15.40
2023-01-06T20:48:32.099Z,10.53
2023-01-06T20:50:58.728Z,8.47
2023-01-06T20:53:25.465Z,11.67
2023-01-06T20:55:52.097Z,7.70
2023-01-06T20:58:18.591Z,9.53
2023-01-06T21:00:45.242Z,20.80
2023-01-06T21:03:11.781Z,16.20
2023-01-06T21:05:39.105Z,13.27
2023-01-06T21:08:05.587Z,7.70
2023-01-06T21:10:32.303Z,11.93
2023-01-06T21:12:58.849Z,12.97
2023-01-06T21:15:28.222Z,12.70
2023-01-06T21:17:54.847Z,8.17
2023-01-06T21:20:21.294Z,12.30
2023-01-06T21:22:47.792Z,10.57
2023-01-06T21:25:14.441Z,9.53
2023-01-06T21:27:40.901Z,14.13
2023-01-06T21:30:07.849Z,11.13
2023-01-06T21:32:34.324Z,15.17
2023-01-06T21:35:00.811Z,11.47
2023-01-06T21:37:27.422Z,12.73
2023-01-06T21:39:53.985Z,8.40
2023-01-06T21:42:39.167Z,13.70
2023-01-06T21:45:06.450Z,12.37
2023-01-06T21:47:32.930Z,16.30
2023-01-06T21:49:59.559Z,17.93
2023-01-06T21:52:26.234Z,18.53
2023-01-06T21:54:52.778Z,16.30
2023-01-06T21:57:19.324Z,11.77
2023-01-06T21:59:45.890Z,13.70
2023-01-06T22:02:14.447Z,11.90
2023-01-06T22:04:41.056Z,12.97
2023-01-06T22:07:09.408Z,13.83
2023-01-06T22:09:39.132Z,10.07
2023-01-06T22:12:08.081Z,15.00
2023-01-06T22:14:35.099Z,13.17
2023-01-06T22:17:01.720Z,32.67
2023-01-06T22:19:29.552Z,16.90
2023-01-06T22:21:56.721Z,9.90
2023-01-06T22:24:24.234Z,14.13
2023-01-06T22:26:50.753Z,14.37
2023-01-06T22:29:17.257Z,13.40
2023-01-06T22:31:43.737Z,12.47
2023-01-06T22:34:10.228Z,16.37
2023-01-06T22:36:36.749Z,12.43
2023-01-06T22:39:03.796Z,13.17
2023-01-06T22:41:30.322Z,11.50
2023-01-06T22:43:56.819Z,9.87
2023-01-06T22:46:23.346Z,6.20
2023-01-06T22:48:49.941Z,13.50
2023-01-06T22:51:16.497Z,14.17
2023-01-06T22:53:43.032Z,16.37
2023-01-06T22:56:11.132Z,9.43
2023-01-06T22:58:39.435Z,14.13
2023-01-06T23:01:07.667Z,17.07
2023-01-06T23:03:34.631Z,11.53
2023-01-06T23:06:04.135Z,9.87
2023-01-06T23:08:33.624Z,11.47
2023-01-06T23:11:00.231Z,14.80
2023-01-06T23:13:27.536Z,12.20
2023-01-06T23:16:22.377Z,9.50
2023-01-06T23:18:50.049Z,17.07
2023-01-06T23:21:21.483Z,11.20
2023-01-06T23:23:49.333Z,13.37
2023-01-06T23:26:21.352Z,13.40
2023-01-06T23:28:48.243Z,20.60
2023-01-06T23:31:17.763Z,9.13
2023-01-06T23:33:49.914Z,14.90
2023-01-06T23:36:19.002Z,16.03
2023-01-06T23:38:46.180Z,14.73
2023-01-06T23:41:17.471Z,15.97
2023-01-06T23:43:44.374Z,13.80
2023-01-06T23:46:14.533Z,13.13
2023-01-06T23:48:41.981Z,17.17
2023-01-06T23:51:10.765Z,11.13
2023-01-06T23:53:38.761Z,9.57
2023-01-06T23:56:16.774Z,12.77
2023-01-06T23:58:45.741Z,13.87
